sensor_id;sensor_type;location;lat;lon;timestamp;temperature;humidity
11617;DHT22;5864;52.998;9.068;2022-12-11T00:00:04;-0.50;99.90
11617;DHT22;5864;52.998;9.068;2022-12-11T00:02:34;-0.40;99.90
11617;DHT22;5864;52.998;9.068;2022-12-11T00:05:01;-0.40;99.90
11617;DHT22;5864;52.998;9.068;2022-12-11T00:07:29;-0.30;99.90
11617;DHT22;5864;52.998;9.068;2022-12-11T00:09:57;-0.30;99.90
11617;DHT22;5864;52.998;9.068;2022-12-11T00:12:24;-0.30;99.90
11617;DHT22;5864;52.998;9.068;2022-12-11T00:14:52;-0.20;99.90
11617;DHT22;5864;52.998;9.068;2022-12-11T00:17:19;-0.10;99.90
11617;DHT22;5864;52.998;9.068;2022-12-11T00:19:48;-0.10;99.90
11617;DHT22;5864;52.998;9.068;2022-12-11T00:22:15;-0.10;99.90
11617;DHT22;5864;52.998;9.068;2022-12-11T00:24:43;-0.10;99.90
11617;DHT22;5864;52.998;9.068;2022-12-11T00:27:10;-0.10;99.90
11617;DHT22;5864;52.998;9.068;2022-12-11T00:29:38;-0.10;99.90
11617;DHT22;5864;52.998;9.068;2022-12-11T00:32:05;-0.20;99.90
11617;DHT22;5864;52.998;9.068;2022-12-11T00:34:33;-0.20;99.90
11617;DHT22;5864;52.998;9.068;2022-12-11T00:37:02;-0.30;99.90
11617;DHT22;5864;52.998;9.068;2022-12-11T00:39:29;-0.20;99.90
11617;DHT22;5864;52.998;9.068;2022-12-11T00:41:57;-0.20;99.90
11617;DHT22;5864;52.998;9.068;2022-12-11T00:44:24;-0.20;99.90
11617;DHT22;5864;52.998;9.068;2022-12-11T00:46:52;-0.10;99.90
11617;DHT22;5864;52.998;9.068;2022-12-11T00:49:19;-0.10;99.90
11617;DHT22;5864;52.998;9.068;2022-12-11T00:51:46;-0.20;99.90
11617;DHT22;5864;52.998;9.068;2022-12-11T00:54:15;-0.20;99.90
11617;DHT22;5864;52.998;9.068;2022-12-11T00:56:43;-0.30;99.90
11617;DHT22;5864;52.998;9.068;2022-12-11T00:59:10;-0.20;99.90
11617;DHT22;5864;52.998;9.068;2022-12-11T01:01:38;-0.20;99.90
11617;DHT22;5864;52.998;9.068;2022-12-11T01:04:06;-0.10;99.90
11617;DHT22;5864;52.998;9.068;2022-12-11T01:06:33;-0.10;99.90
11617;DHT22;5864;52.998;9.068;2022-12-11T01:09:01;-0.20;99.90
11617;DHT22;5864;52.998;9.068;2022-12-11T01:11:47;-0.30;99.90
11617;DHT22;5864;52.998;9.068;2022-12-11T01:14:15;-0.20;99.90
11617;DHT22;5864;52.998;9.068;2022-12-11T01:16:42;-0.10;99.90
11617;DHT22;5864;52.998;9.068;2022-12-11T01:19:10;-0.20;99.90
11617;DHT22;5864;52.998;9.068;2022-12-11T01:21:37;-0.20;99.90
11617;DHT22;5864;52.998;9.068;2022-12-11T01:24:05;-0.20;99.90
11617;DHT22;5864;52.998;9.068;2022-12-11T01:26:33;-0.20;99.90
11617;DHT22;5864;52.998;9.068;2022-12-11T01:29:02;-0.20;99.90
11617;DHT22;5864;52.998;9.068;2022-12-11T01:31:29;-0.20;99.90
11617;DHT22;5864;52.998;9.068;2022-12-11T01:33:57;-0.10;99.90
11617;DHT22;5864;52.998;9.068;2022-12-11T01:36:24;-0.10;99.90
11617;DHT22;5864;52.998;9.068;2022-12-11T01:38:55;-0.10;99.90
11617;DHT22;5864;52.998;9.068;2022-12-11T01:41:23;-0.10;99.90
11617;DHT22;5864;52.998;9.068;2022-12-11T01:43:58;-0.20;99.90
11617;DHT22;5864;52.998;9.068;2022-12-11T01:46:29;-0.20;99.90
11617;DHT22;5864;52.998;9.068;2022-12-11T01:48:57;-0.20;99.90
11617;DHT22;5864;52.998;9.068;2022-12-11T01:51:26;-0.20;99.90
11617;DHT22;5864;52.998;9.068;2022-12-11T01:53:58;-0.30;99.90
11617;DHT22;5864;52.998;9.068;2022-12-11T01:56:28;-0.40;99.90
11617;DHT22;5864;52.998;9.068;2022-12-11T01:59:00;-0.40;99.90
11617;DHT22;5864;52.998;9.068;2022-12-11T02:01:35;-0.30;99.90
11617;DHT22;5864;52.998;9.068;2022-12-11T02:04:04;-0.30;99.90
11617;DHT22;5864;52.998;9.068;2022-12-11T02:06:35;-0.30;99.90
11617;DHT22;5864;52.998;9.068;2022-12-11T02:09:06;-0.40;99.90
11617;DHT22;5864;52.998;9.068;2022-12-11T02:11:44;-0.40;99.90
11617;DHT22;5864;52.998;9.068;2022-12-11T02:14:19;-0.40;99.90
11617;DHT22;5864;52.998;9.068;2022-12-11T02:16:55;-0.40;99.90
11617;DHT22;5864;52.998;9.068;2022-12-11T02:19:40;-0.30;99.90
11617;DHT22;5864;52.998;9.068;2022-12-11T02:22:12;-0.30;99.90
11617;DHT22;5864;52.998;9.068;2022-12-11T02:24:53;-0.30;99.90
11617;DHT22;5864;52.998;9.068;2022-12-11T02:27:30;-0.30;99.90
11617;DHT22;5864;52.998;9.068;2022-12-11T02:30:05;-0.20;99.90
11617;DHT22;5864;52.998;9.068;2022-12-11T02:32:37;-0.30;99.90
11617;DHT22;5864;52.998;9.068;2022-12-11T02:35:11;-0.40;99.90
11617;DHT22;5864;52.998;9.068;2022-12-11T02:37:42;-0.40;99.90
11617;DHT22;5864;52.998;9.068;2022-12-11T02:40:12;-0.50;99.90
11617;DHT22;5864;52.998;9.068;2022-12-11T02:42:44;-0.50;99.90
11617;DHT22;5864;52.998;9.068;2022-12-11T02:45:15;-0.50;99.90
11617;DHT22;5864;52.998;9.068;2022-12-11T02:47:46;-0.50;99.90
11617;DHT22;5864;52.998;9.068;2022-12-11T02:50:17;-0.50;99.90
11617;DHT22;5864;52.998;9.068;2022-12-11T02:52:47;-0.40;99.90
11617;DHT22;5864;52.998;9.068;2022-12-11T02:55:17;-0.50;99.90
11617;DHT22;5864;52.998;9.068;2022-12-11T02:57:48;-0.50;99.90
11617;DHT22;5864;52.998;9.068;2022-12-11T03:00:18;-0.50;99.90
11617;DHT22;5864;52.998;9.068;2022-12-11T03:02:45;-0.50;99.90
11617;DHT22;5864;52.998;9.068;2022-12-11T03:05:13;-0.50;99.90
11617;DHT22;5864;52.998;9.068;2022-12-11T03:07:42;-0.50;99.90
11617;DHT22;5864;52.998;9.068;2022-12-11T03:10:13;-0.50;99.90
11617;DHT22;5864;52.998;9.068;2022-12-11T03:12:43;-0.50;99.90
11617;DHT22;5864;52.998;9.068;2022-12-11T03:15:18;-0.50;99.90
11617;DHT22;5864;52.998;9.068;2022-12-11T03:17:53;-0.50;99.90
11617;DHT22;5864;52.998;9.068;2022-12-11T03:20:32;-0.40;99.90
11617;DHT22;5864;52.998;9.068;2022-12-11T03:23:05;-0.40;99.90
11617;DHT22;5864;52.998;9.068;2022-12-11T03:25:39;-0.50;99.90
11617;DHT22;5864;52.998;9.068;2022-12-11T03:28:11;-0.50;99.90
11617;DHT22;5864;52.998;9.068;2022-12-11T03:30:42;-0.60;99.90
11617;DHT22;5864;52.998;9.068;2022-12-11T03:33:15;-0.60;99.90
11617;DHT22;5864;52.998;9.068;2022-12-11T03:35:48;-0.60;99.90
11617;DHT22;5864;52.998;9.068;2022-12-11T03:38:21;-0.70;99.90
11617;DHT22;5864;52.998;9.068;2022-12-11T03:40:52;-0.70;99.90
11617;DHT22;5864;52.998;9.068;2022-12-11T03:43:21;-0.70;99.90
11617;DHT22;5864;52.998;9.068;2022-12-11T03:45:51;-0.70;99.90
11617;DHT22;5864;52.998;9.068;2022-12-11T03:48:20;-0.60;99.90
11617;DHT22;5864;52.998;9.068;2022-12-11T03:50:49;-0.60;99.90
11617;DHT22;5864;52.998;9.068;2022-12-11T03:53:18;-0.50;99.90
11617;DHT22;5864;52.998;9.068;2022-12-11T03:55:47;-0.50;99.90
11617;DHT22;5864;52.998;9.068;2022-12-11T03:58:15;-0.50;99.90
11617;DHT22;5864;52.998;9.068;2022-12-11T04:00:43;-0.60;99.90
11617;DHT22;5864;52.998;9.068;2022-12-11T04:03:12;-0.60;99.90
11617;DHT22;5864;52.998;9.068;2022-12-11T04:05:40;-0.70;99.90
11617;DHT22;5864;52.998;9.068;2022-12-11T04:08:07;-0.70;99.90
11617;DHT22;5864;52.998;9.068;2022-12-11T04:10:35;-1.40;99.90
11617;DHT22;5864;52.998;9.068;2022-12-11T04:13:02;-0.70;99.90
11617;DHT22;5864;52.998;9.068;2022-12-11T04:15:30;-0.70;99.90
11617;DHT22;5864;52.998;9.068;2022-12-11T04:17:56;-0.60;99.90
11617;DHT22;5864;52.998;9.068;2022-12-11T04:20:43;-0.60;99.90
11617;DHT22;5864;52.998;9.068;2022-12-11T04:23:28;-0.70;99.90
11617;DHT22;5864;52.998;9.068;2022-12-11T04:26:15;-0.60;99.90
11617;DHT22;5864;52.998;9.068;2022-12-11T04:28:44;-0.70;99.90
11617;DHT22;5864;52.998;9.068;2022-12-11T04:31:12;-0.60;99.90
11617;DHT22;5864;52.998;9.068;2022-12-11T04:33:40;-0.70;99.90
11617;DHT22;5864;52.998;9.068;2022-12-11T04:36:10;-0.60;99.90
11617;DHT22;5864;52.998;9.068;2022-12-11T04:38:38;-0.60;99.90
11617;DHT22;5864;52.998;9.068;2022-12-11T04:41:07;1.00;99.90
11617;DHT22;5864;52.998;9.068;2022-12-11T04:43:35;-0.70;99.90
11617;DHT22;5864;52.998;9.068;2022-12-11T04:46:03;-0.70;99.90
11617;DHT22;5864;52.998;9.068;2022-12-11T04:48:31;-0.70;99.90
11617;DHT22;5864;52.998;9.068;2022-12-11T04:50:59;-0.80;99.90
11617;DHT22;5864;52.998;9.068;2022-12-11T04:53:28;-0.70;99.90
11617;DHT22;5864;52.998;9.068;2022-12-11T04:55:55;-0.70;99.90
11617;DHT22;5864;52.998;9.068;2022-12-11T04:58:23;-0.70;99.90
11617;DHT22;5864;52.998;9.068;2022-12-11T05:00:51;-0.70;99.90
11617;DHT22;5864;52.998;9.068;2022-12-11T05:03:19;-0.60;99.90
11617;DHT22;5864;52.998;9.068;2022-12-11T05:05:47;-0.60;99.90
11617;DHT22;5864;52.998;9.068;2022-12-11T05:08:15;-0.60;99.90
11617;DHT22;5864;52.998;9.068;2022-12-11T05:10:53;-0.60;99.90
11617;DHT22;5864;52.998;9.068;2022-12-11T05:13:20;-0.50;99.90
11617;DHT22;5864;52.998;9.068;2022-12-11T05:15:48;-0.50;99.90
11617;DHT22;5864;52.998;9.068;2022-12-11T05:18:15;-0.60;99.90
11617;DHT22;5864;52.998;9.068;2022-12-11T05:20:43;-0.50;99.90
11617;DHT22;5864;52.998;9.068;2022-12-11T05:23:10;-0.50;99.90
11617;DHT22;5864;52.998;9.068;2022-12-11T05:25:38;-0.40;99.90
11617;DHT22;5864;52.998;9.068;2022-12-11T05:28:06;-0.40;99.90
11617;DHT22;5864;52.998;9.068;2022-12-11T05:30:34;-0.40;99.90
11617;DHT22;5864;52.998;9.068;2022-12-11T05:33:01;-0.40;99.90
11617;DHT22;5864;52.998;9.068;2022-12-11T05:35:29;-0.40;99.90
11617;DHT22;5864;52.998;9.068;2022-12-11T05:37:56;-0.50;99.90
11617;DHT22;5864;52.998;9.068;2022-12-11T05:40:25;-0.40;99.90
11617;DHT22;5864;52.998;9.068;2022-12-11T05:42:53;-0.40;99.90
11617;DHT22;5864;52.998;9.068;2022-12-11T05:45:22;-0.50;99.90
11617;DHT22;5864;52.998;9.068;2022-12-11T05:47:50;-0.40;99.90
11617;DHT22;5864;52.998;9.068;2022-12-11T05:50:17;-0.50;99.90
11617;DHT22;5864;52.998;9.068;2022-12-11T05:52:45;-0.50;99.90
11617;DHT22;5864;52.998;9.068;2022-12-11T05:55:13;-0.50;99.90
11617;DHT22;5864;52.998;9.068;2022-12-11T05:57:40;-0.50;99.90
11617;DHT22;5864;52.998;9.068;2022-12-11T06:00:10;-0.60;99.90
11617;DHT22;5864;52.998;9.068;2022-12-11T06:02:39;-0.60;99.90
11617;DHT22;5864;52.998;9.068;2022-12-11T06:05:07;-0.70;99.90
11617;DHT22;5864;52.998;9.068;2022-12-11T06:07:37;-0.70;99.90
11617;DHT22;5864;52.998;9.068;2022-12-11T06:10:05;-0.80;99.90
11617;DHT22;5864;52.998;9.068;2022-12-11T06:12:33;-0.70;99.90
11617;DHT22;5864;52.998;9.068;2022-12-11T06:15:01;-0.70;99.90
11617;DHT22;5864;52.998;9.068;2022-12-11T06:17:30;-0.80;99.90
11617;DHT22;5864;52.998;9.068;2022-12-11T06:19:59;0.50;99.90
11617;DHT22;5864;52.998;9.068;2022-12-11T06:22:26;-0.80;99.90
11617;DHT22;5864;52.998;9.068;2022-12-11T06:24:53;-0.80;99.90
11617;DHT22;5864;52.998;9.068;2022-12-11T06:27:21;-0.80;99.90
11617;DHT22;5864;52.998;9.068;2022-12-11T06:29:48;-0.80;99.90
11617;DHT22;5864;52.998;9.068;2022-12-11T06:32:16;-0.80;99.90
11617;DHT22;5864;52.998;9.068;2022-12-11T06:34:43;-0.70;99.90
11617;DHT22;5864;52.998;9.068;2022-12-11T06:37:12;-0.70;99.90
11617;DHT22;5864;52.998;9.068;2022-12-11T06:39:40;-0.60;99.90
11617;DHT22;5864;52.998;9.068;2022-12-11T06:42:07;-0.60;99.90
11617;DHT22;5864;52.998;9.068;2022-12-11T06:44:35;-0.60;99.90
11617;DHT22;5864;52.998;9.068;2022-12-11T06:47:02;-0.70;99.90
11617;DHT22;5864;52.998;9.068;2022-12-11T06:49:30;-0.70;99.90
11617;DHT22;5864;52.998;9.068;2022-12-11T06:51:57;-0.80;99.90
11617;DHT22;5864;52.998;9.068;2022-12-11T06:54:26;-0.70;99.90
11617;DHT22;5864;52.998;9.068;2022-12-11T06:56:54;-0.70;99.90
11617;DHT22;5864;52.998;9.068;2022-12-11T06:59:21;-0.80;99.90
11617;DHT22;5864;52.998;9.068;2022-12-11T07:01:49;-0.80;99.90
11617;DHT22;5864;52.998;9.068;2022-12-11T07:04:16;-0.70;99.90
11617;DHT22;5864;52.998;9.068;2022-12-11T07:06:44;-0.70;99.90
11617;DHT22;5864;52.998;9.068;2022-12-11T07:09:12;-0.80;99.90
11617;DHT22;5864;52.998;9.068;2022-12-11T07:11:41;-0.80;99.90
11617;DHT22;5864;52.998;9.068;2022-12-11T07:14:08;-0.80;99.90
11617;DHT22;5864;52.998;9.068;2022-12-11T07:16:36;-0.70;99.90
11617;DHT22;5864;52.998;9.068;2022-12-11T07:19:04;-0.70;99.90
11617;DHT22;5864;52.998;9.068;2022-12-11T07:21:31;-0.70;99.90
11617;DHT22;5864;52.998;9.068;2022-12-11T07:23:59;-0.70;99.90
11617;DHT22;5864;52.998;9.068;2022-12-11T07:26:26;-0.80;99.90
11617;DHT22;5864;52.998;9.068;2022-12-11T07:28:57;-0.80;99.90
11617;DHT22;5864;52.998;9.068;2022-12-11T07:31:27;-0.80;99.90
11617;DHT22;5864;52.998;9.068;2022-12-11T07:33:56;-0.90;99.90
11617;DHT22;5864;52.998;9.068;2022-12-11T07:36:24;-0.80;99.90
11617;DHT22;5864;52.998;9.068;2022-12-11T07:38:52;-0.80;99.90
11617;DHT22;5864;52.998;9.068;2022-12-11T07:41:21;-0.90;99.90
11617;DHT22;5864;52.998;9.068;2022-12-11T07:43:48;-0.90;99.90
11617;DHT22;5864;52.998;9.068;2022-12-11T07:46:19;-0.90;99.90
11617;DHT22;5864;52.998;9.068;2022-12-11T07:48:48;-0.80;99.90
11617;DHT22;5864;52.998;9.068;2022-12-11T07:51:17;-0.80;99.90
11617;DHT22;5864;52.998;9.068;2022-12-11T07:53:46;-0.80;99.90
11617;DHT22;5864;52.998;9.068;2022-12-11T07:56:14;-0.90;99.90
11617;DHT22;5864;52.998;9.068;2022-12-11T07:58:42;-0.80;99.90
11617;DHT22;5864;52.998;9.068;2022-12-11T08:01:10;-0.70;99.90
11617;DHT22;5864;52.998;9.068;2022-12-11T08:03:40;-0.70;99.90
11617;DHT22;5864;52.998;9.068;2022-12-11T08:06:08;-0.80;99.90
11617;DHT22;5864;52.998;9.068;2022-12-11T08:08:36;-0.80;99.90
11617;DHT22;5864;52.998;9.068;2022-12-11T08:11:06;-0.80;99.90
11617;DHT22;5864;52.998;9.068;2022-12-11T08:13:34;-0.90;99.90
11617;DHT22;5864;52.998;9.068;2022-12-11T08:16:03;-0.90;99.90
11617;DHT22;5864;52.998;9.068;2022-12-11T08:18:31;-1.00;99.90
11617;DHT22;5864;52.998;9.068;2022-12-11T08:21:04;-0.90;99.90
11617;DHT22;5864;52.998;9.068;2022-12-11T08:23:31;-1.00;99.90
11617;DHT22;5864;52.998;9.068;2022-12-11T08:26:00;-1.00;99.90
11617;DHT22;5864;52.998;9.068;2022-12-11T08:28:28;-0.90;99.90
11617;DHT22;5864;52.998;9.068;2022-12-11T08:30:56;-1.00;99.90
11617;DHT22;5864;52.998;9.068;2022-12-11T08:33:23;-0.90;99.90
11617;DHT22;5864;52.998;9.068;2022-12-11T08:35:51;-0.90;99.90
11617;DHT22;5864;52.998;9.068;2022-12-11T08:38:20;-0.90;99.90
11617;DHT22;5864;52.998;9.068;2022-12-11T08:40:47;-1.00;99.90
11617;DHT22;5864;52.998;9.068;2022-12-11T08:43:18;-0.90;99.90
11617;DHT22;5864;52.998;9.068;2022-12-11T08:45:45;-0.80;99.90
11617;DHT22;5864;52.998;9.068;2022-12-11T08:48:12;-0.80;99.90
11617;DHT22;5864;52.998;9.068;2022-12-11T08:50:40;-0.70;99.90
11617;DHT22;5864;52.998;9.068;2022-12-11T08:53:07;-0.70;99.90
11617;DHT22;5864;52.998;9.068;2022-12-11T08:55:36;-0.70;99.90
11617;DHT22;5864;52.998;9.068;2022-12-11T08:58:04;-0.70;99.90
11617;DHT22;5864;52.998;9.068;2022-12-11T09:00:31;-0.70;99.90
11617;DHT22;5864;52.998;9.068;2022-12-11T09:02:59;-0.70;99.90
11617;DHT22;5864;52.998;9.068;2022-12-11T09:05:27;-0.70;99.90
11617;DHT22;5864;52.998;9.068;2022-12-11T09:07:54;-0.60;99.90
11617;DHT22;5864;52.998;9.068;2022-12-11T09:10:21;-0.60;99.90
11617;DHT22;5864;52.998;9.068;2022-12-11T09:12:50;-0.60;99.90
11617;DHT22;5864;52.998;9.068;2022-12-11T09:15:18;-0.60;99.90
11617;DHT22;5864;52.998;9.068;2022-12-11T09:17:45;-0.50;99.90
11617;DHT22;5864;52.998;9.068;2022-12-11T09:20:13;-0.50;99.90
11617;DHT22;5864;52.998;9.068;2022-12-11T09:22:40;-0.50;99.90
11617;DHT22;5864;52.998;9.068;2022-12-11T09:25:08;-0.60;99.90
11617;DHT22;5864;52.998;9.068;2022-12-11T09:27:36;-0.50;99.90
11617;DHT22;5864;52.998;9.068;2022-12-11T09:30:06;-0.50;99.90
11617;DHT22;5864;52.998;9.068;2022-12-11T09:32:34;-0.60;99.90
11617;DHT22;5864;52.998;9.068;2022-12-11T09:35:02;-0.70;99.90
11617;DHT22;5864;52.998;9.068;2022-12-11T09:37:29;-0.60;99.90
11617;DHT22;5864;52.998;9.068;2022-12-11T09:39:56;-0.60;99.90
11617;DHT22;5864;52.998;9.068;2022-12-11T09:42:30;-0.60;99.90
11617;DHT22;5864;52.998;9.068;2022-12-11T09:45:09;-0.60;99.90
11617;DHT22;5864;52.998;9.068;2022-12-11T09:47:40;-0.60;99.90
11617;DHT22;5864;52.998;9.068;2022-12-11T09:50:13;-0.70;99.90
11617;DHT22;5864;52.998;9.068;2022-12-11T09:52:52;-0.70;99.90
11617;DHT22;5864;52.998;9.068;2022-12-11T09:55:23;-0.70;99.90
11617;DHT22;5864;52.998;9.068;2022-12-11T09:57:57;-0.70;99.90
11617;DHT22;5864;52.998;9.068;2022-12-11T10:00:32;-0.60;99.90
11617;DHT22;5864;52.998;9.068;2022-12-11T10:03:33;-0.60;99.90
11617;DHT22;5864;52.998;9.068;2022-12-11T10:06:11;-0.60;99.90
11617;DHT22;5864;52.998;9.068;2022-12-11T10:08:46;-0.50;99.90
11617;DHT22;5864;52.998;9.068;2022-12-11T10:11:44;-0.50;99.90
11617;DHT22;5864;52.998;9.068;2022-12-11T10:14:20;-0.50;99.90
11617;DHT22;5864;52.998;9.068;2022-12-11T10:16:57;-0.50;99.90
11617;DHT22;5864;52.998;9.068;2022-12-11T10:19:28;-0.40;99.90
11617;DHT22;5864;52.998;9.068;2022-12-11T10:21:56;-0.50;99.90
11617;DHT22;5864;52.998;9.068;2022-12-11T10:24:28;-0.50;99.90
11617;DHT22;5864;52.998;9.068;2022-12-11T10:27:00;-0.60;99.90
11617;DHT22;5864;52.998;9.068;2022-12-11T10:29:35;-0.50;99.90
11617;DHT22;5864;52.998;9.068;2022-12-11T10:32:13;-0.60;99.90
11617;DHT22;5864;52.998;9.068;2022-12-11T10:34:43;-0.60;99.90
11617;DHT22;5864;52.998;9.068;2022-12-11T10:37:12;-0.60;99.90
11617;DHT22;5864;52.998;9.068;2022-12-11T10:39:40;-0.60;99.90
11617;DHT22;5864;52.998;9.068;2022-12-11T10:42:15;-0.60;99.90
11617;DHT22;5864;52.998;9.068;2022-12-11T10:44:54;-0.50;99.90
11617;DHT22;5864;52.998;9.068;2022-12-11T10:47:23;-0.50;99.90
11617;DHT22;5864;52.998;9.068;2022-12-11T10:49:53;-0.40;99.90
11617;DHT22;5864;52.998;9.068;2022-12-11T10:52:23;-0.40;99.90
11617;DHT22;5864;52.998;9.068;2022-12-11T10:54:58;-0.30;99.90
11617;DHT22;5864;52.998;9.068;2022-12-11T10:57:28;-0.40;99.90
11617;DHT22;5864;52.998;9.068;2022-12-11T10:59:57;-0.40;99.90
11617;DHT22;5864;52.998;9.068;2022-12-11T11:02:28;-0.30;99.90
11617;DHT22;5864;52.998;9.068;2022-12-11T11:04:58;-0.30;99.90
11617;DHT22;5864;52.998;9.068;2022-12-11T11:07:27;-0.20;99.90
11617;DHT22;5864;52.998;9.068;2022-12-11T11:10:14;-0.30;99.90
11617;DHT22;5864;52.998;9.068;2022-12-11T11:12:43;-0.20;99.90
11617;DHT22;5864;52.998;9.068;2022-12-11T11:15:13;-0.10;99.90
11617;DHT22;5864;52.998;9.068;2022-12-11T11:17:45;-0.10;99.90
11617;DHT22;5864;52.998;9.068;2022-12-11T11:20:15;-0.10;99.90
11617;DHT22;5864;52.998;9.068;2022-12-11T11:22:46;-0.20;99.90
11617;DHT22;5864;52.998;9.068;2022-12-11T11:25:17;-0.20;99.90
11617;DHT22;5864;52.998;9.068;2022-12-11T11:27:50;-0.20;99.90
11617;DHT22;5864;52.998;9.068;2022-12-11T11:30:21;-0.10;99.90
11617;DHT22;5864;52.998;9.068;2022-12-11T11:32:53;-0.20;99.90
11617;DHT22;5864;52.998;9.068;2022-12-11T11:35:23;-0.20;99.90
11617;DHT22;5864;52.998;9.068;2022-12-11T11:37:58;-0.10;99.90
11617;DHT22;5864;52.998;9.068;2022-12-11T11:40:29;-0.10;99.90
11617;DHT22;5864;52.998;9.068;2022-12-11T11:43:04;0.00;99.90
11617;DHT22;5864;52.998;9.068;2022-12-11T11:45:36;0.00;99.90
11617;DHT22;5864;52.998;9.068;2022-12-11T11:48:15;0.30;99.90
11617;DHT22;5864;52.998;9.068;2022-12-11T11:50:47;0.00;99.90
11617;DHT22;5864;52.998;9.068;2022-12-11T11:53:20;0.00;99.90
11617;DHT22;5864;52.998;9.068;2022-12-11T11:55:58;0.00;99.90
11617;DHT22;5864;52.998;9.068;2022-12-11T11:58:35;-0.10;99.90
11617;DHT22;5864;52.998;9.068;2022-12-11T12:01:04;0.00;99.90
11617;DHT22;5864;52.998;9.068;2022-12-11T12:03:32;0.10;99.90
11617;DHT22;5864;52.998;9.068;2022-12-11T12:06:06;0.00;99.90
11617;DHT22;5864;52.998;9.068;2022-12-11T12:08:41;0.00;99.90
11617;DHT22;5864;52.998;9.068;2022-12-11T12:11:16;0.00;99.90
11617;DHT22;5864;52.998;9.068;2022-12-11T12:13:52;0.10;99.90
11617;DHT22;5864;52.998;9.068;2022-12-11T12:16:30;0.20;99.90
11617;DHT22;5864;52.998;9.068;2022-12-11T12:19:10;0.20;99.90
11617;DHT22;5864;52.998;9.068;2022-12-11T12:21:44;0.20;99.90
11617;DHT22;5864;52.998;9.068;2022-12-11T12:24:19;0.20;99.90
11617;DHT22;5864;52.998;9.068;2022-12-11T12:26:54;0.30;99.90
11617;DHT22;5864;52.998;9.068;2022-12-11T12:29:28;0.30;99.90
11617;DHT22;5864;52.998;9.068;2022-12-11T12:32:08;0.30;99.90
11617;DHT22;5864;52.998;9.068;2022-12-11T12:34:59;0.30;99.90
11617;DHT22;5864;52.998;9.068;2022-12-11T12:37:45;0.30;99.90
11617;DHT22;5864;52.998;9.068;2022-12-11T12:40:18;0.30;99.90
11617;DHT22;5864;52.998;9.068;2022-12-11T12:42:51;0.30;99.90
11617;DHT22;5864;52.998;9.068;2022-12-11T12:45:25;0.20;99.90
11617;DHT22;5864;52.998;9.068;2022-12-11T12:47:54;0.20;99.90
11617;DHT22;5864;52.998;9.068;2022-12-11T12:50:35;0.20;99.90
11617;DHT22;5864;52.998;9.068;2022-12-11T12:53:04;0.10;99.90
11617;DHT22;5864;52.998;9.068;2022-12-11T12:55:33;0.20;99.90
11617;DHT22;5864;52.998;9.068;2022-12-11T12:58:04;0.30;99.90
11617;DHT22;5864;52.998;9.068;2022-12-11T13:00:33;0.30;99.90
11617;DHT22;5864;52.998;9.068;2022-12-11T13:03:03;0.40;99.90
11617;DHT22;5864;52.998;9.068;2022-12-11T13:05:42;0.30;99.90
11617;DHT22;5864;52.998;9.068;2022-12-11T13:08:11;0.30;99.90
11617;DHT22;5864;52.998;9.068;2022-12-11T13:10:41;0.40;99.90
11617;DHT22;5864;52.998;9.068;2022-12-11T13:13:33;0.50;99.90
11617;DHT22;5864;52.998;9.068;2022-12-11T13:16:23;0.60;99.90
11617;DHT22;5864;52.998;9.068;2022-12-11T13:18:51;0.60;99.90
11617;DHT22;5864;52.998;9.068;2022-12-11T13:21:29;0.40;99.90
11617;DHT22;5864;52.998;9.068;2022-12-11T13:24:14;0.40;99.90
11617;DHT22;5864;52.998;9.068;2022-12-11T13:26:42;0.40;99.90
11617;DHT22;5864;52.998;9.068;2022-12-11T13:29:38;0.40;99.90
11617;DHT22;5864;52.998;9.068;2022-12-11T13:32:21;0.40;99.90
11617;DHT22;5864;52.998;9.068;2022-12-11T13:34:55;0.30;99.90
11617;DHT22;5864;52.998;9.068;2022-12-11T13:37:28;0.30;99.90
11617;DHT22;5864;52.998;9.068;2022-12-11T13:39:58;0.30;99.90
11617;DHT22;5864;52.998;9.068;2022-12-11T13:42:30;0.30;99.90
11617;DHT22;5864;52.998;9.068;2022-12-11T13:44:58;0.20;99.90
11617;DHT22;5864;52.998;9.068;2022-12-11T13:47:27;0.20;99.90
11617;DHT22;5864;52.998;9.068;2022-12-11T13:50:06;0.20;99.90
11617;DHT22;5864;52.998;9.068;2022-12-11T13:52:38;0.20;99.90
11617;DHT22;5864;52.998;9.068;2022-12-11T13:55:16;0.30;99.90
11617;DHT22;5864;52.998;9.068;2022-12-11T13:57:47;0.40;99.90
11617;DHT22;5864;52.998;9.068;2022-12-11T14:00:20;0.40;99.90
11617;DHT22;5864;52.998;9.068;2022-12-11T14:02:48;0.50;99.90
11617;DHT22;5864;52.998;9.068;2022-12-11T14:05:17;0.60;99.90
11617;DHT22;5864;52.998;9.068;2022-12-11T14:07:49;0.70;99.90
11617;DHT22;5864;52.998;9.068;2022-12-11T14:10:22;0.70;99.90
11617;DHT22;5864;52.998;9.068;2022-12-11T14:12:52;0.80;99.90
11617;DHT22;5864;52.998;9.068;2022-12-11T14:15:22;1.50;99.90
11617;DHT22;5864;52.998;9.068;2022-12-11T14:17:50;0.70;99.90
11617;DHT22;5864;52.998;9.068;2022-12-11T14:20:20;0.70;99.90
11617;DHT22;5864;52.998;9.068;2022-12-11T14:22:50;0.60;99.90
11617;DHT22;5864;52.998;9.068;2022-12-11T14:25:22;0.70;99.90
11617;DHT22;5864;52.998;9.068;2022-12-11T14:27:53;0.60;99.90
11617;DHT22;5864;52.998;9.068;2022-12-11T14:30:23;0.60;99.90
11617;DHT22;5864;52.998;9.068;2022-12-11T14:32:52;0.60;99.90
11617;DHT22;5864;52.998;9.068;2022-12-11T14:35:25;0.60;99.90
11617;DHT22;5864;52.998;9.068;2022-12-11T14:37:55;0.60;99.90
11617;DHT22;5864;52.998;9.068;2022-12-11T14:40:27;0.50;99.90
11617;DHT22;5864;52.998;9.068;2022-12-11T14:42:58;0.60;99.90
11617;DHT22;5864;52.998;9.068;2022-12-11T14:45:31;0.60;99.90
11617;DHT22;5864;52.998;9.068;2022-12-11T14:48:01;0.50;99.90
11617;DHT22;5864;52.998;9.068;2022-12-11T14:50:38;0.30;99.90
11617;DHT22;5864;52.998;9.068;2022-12-11T14:53:13;0.30;99.90
11617;DHT22;5864;52.998;9.068;2022-12-11T14:55:41;0.10;99.90
11617;DHT22;5864;52.998;9.068;2022-12-11T14:58:14;0.10;99.90
11617;DHT22;5864;52.998;9.068;2022-12-11T15:00:43;0.00;99.90
11617;DHT22;5864;52.998;9.068;2022-12-11T15:03:23;0.00;99.90
11617;DHT22;5864;52.998;9.068;2022-12-11T15:05:54;-0.10;99.90
11617;DHT22;5864;52.998;9.068;2022-12-11T15:08:26;-0.10;99.90
11617;DHT22;5864;52.998;9.068;2022-12-11T15:11:02;-0.10;99.90
11617;DHT22;5864;52.998;9.068;2022-12-11T15:13:32;0.00;99.90
11617;DHT22;5864;52.998;9.068;2022-12-11T15:16:00;-0.20;99.90
11617;DHT22;5864;52.998;9.068;2022-12-11T15:18:30;0.90;99.90
11617;DHT22;5864;52.998;9.068;2022-12-11T15:21:01;-0.20;99.90
11617;DHT22;5864;52.998;9.068;2022-12-11T15:23:30;-0.20;99.90
11617;DHT22;5864;52.998;9.068;2022-12-11T15:25:59;-0.20;99.90
11617;DHT22;5864;52.998;9.068;2022-12-11T15:28:29;-0.40;99.90
11617;DHT22;5864;52.998;9.068;2022-12-11T15:30:59;-0.30;99.90
11617;DHT22;5864;52.998;9.068;2022-12-11T15:33:27;-0.30;99.90
11617;DHT22;5864;52.998;9.068;2022-12-11T15:35:57;-0.30;99.90
11617;DHT22;5864;52.998;9.068;2022-12-11T15:38:33;-0.30;99.90
11617;DHT22;5864;52.998;9.068;2022-12-11T15:41:01;-0.40;99.90
11617;DHT22;5864;52.998;9.068;2022-12-11T15:43:33;-0.50;99.90
11617;DHT22;5864;52.998;9.068;2022-12-11T15:46:02;-0.50;99.90
11617;DHT22;5864;52.998;9.068;2022-12-11T15:48:30;-0.60;99.90
11617;DHT22;5864;52.998;9.068;2022-12-11T15:50:58;-0.70;99.90
11617;DHT22;5864;52.998;9.068;2022-12-11T15:53:25;-0.80;99.90
11617;DHT22;5864;52.998;9.068;2022-12-11T15:55:54;-1.00;99.90
11617;DHT22;5864;52.998;9.068;2022-12-11T15:58:23;-1.10;99.90
11617;DHT22;5864;52.998;9.068;2022-12-11T16:00:53;-1.00;99.90
11617;DHT22;5864;52.998;9.068;2022-12-11T16:03:21;-0.90;99.90
11617;DHT22;5864;52.998;9.068;2022-12-11T16:05:50;-0.80;99.90
11617;DHT22;5864;52.998;9.068;2022-12-11T16:08:19;-0.80;99.90
11617;DHT22;5864;52.998;9.068;2022-12-11T16:10:48;-0.80;99.90